Time;durP1;ratioP1;P1;durP2;ratioP2;P2;SDS_P1;SDS_P2;PMS_P1;PMS_P2;Temp;Humidity;BMP_temperature;BMP_pressure;BME280_temperature;BME280_humidity;BME280_pressure;Samples;Min_cycle;Max_cycle;Signal;HPM_P1;HPM_P2
2022/12/03 00:01:51;;;;;;;30.10;10.85;;;2.60;99.90;;;;;;5049692;28;20070;-76
2022/12/03 00:04:17;;;;;;;36.10;13.98;;;2.70;99.90;;;;;;5067342;28;20511;-76
2022/12/03 00:06:42;;;;;;;26.42;11.60;;;2.60;99.90;;;;;;5067549;28;20474;-77
2022/12/03 00:09:08;;;;;;;35.03;14.30;;;2.60;99.90;;;;;;5049067;28;20074;-76
2022/12/03 00:11:33;;;;;;;32.42;12.70;;;2.70;99.90;;;;;;5067341;28;20029;-76
2022/12/03 00:13:59;;;;;;;32.53;14.88;;;2.60;99.90;;;;;;5049222;28;20032;-76
2022/12/03 00:16:25;;;;;;;35.53;15.55;;;2.60;99.90;;;;;;5067333;28;20020;-76
2022/12/03 00:18:51;;;;;;;34.90;13.00;;;3.60;99.90;;;;;;5049423;28;20017;-76
2022/12/03 00:21:17;;;;;;;32.60;14.43;;;2.70;99.90;;;;;;5066798;28;20393;-75
2022/12/03 00:23:42;;;;;;;41.20;13.90;;;2.60;99.90;;;;;;5048764;28;20020;-76
2022/12/03 00:26:08;;;;;;;31.40;13.60;;;3.50;99.90;;;;;;5067409;28;20036;-76
2022/12/03 00:28:34;;;;;;;47.95;13.52;;;2.70;99.90;;;;;;5050392;28;20063;-76
2022/12/03 00:30:59;;;;;;;30.25;12.13;;;4.30;99.90;;;;;;5050577;28;20580;-76
2022/12/03 00:33:25;;;;;;;36.72;16.05;;;2.80;99.90;;;;;;5049688;28;20031;-76
2022/12/03 00:35:51;;;;;;;28.27;11.32;;;3.40;99.90;;;;;;5049352;28;20540;-76
2022/12/03 00:38:16;;;;;;;37.70;12.25;;;2.60;99.90;;;;;;5066733;28;20469;-75
2022/12/03 00:40:42;;;;;;;31.48;12.32;;;2.50;99.90;;;;;;5048703;28;20049;-77
2022/12/03 00:43:08;;;;;;;25.55;12.98;;;3.50;99.90;;;;;;5068739;28;20108;-77
2022/12/03 00:45:33;;;;;;;45.33;14.63;;;2.80;99.90;;;;;;5050433;28;20473;-77
2022/12/03 00:47:59;;;;;;;37.20;13.43;;;3.40;99.90;;;;;;5049299;28;20512;-76
2022/12/03 00:50:24;;;;;;;27.85;12.45;;;2.60;99.90;;;;;;5048722;28;20094;-77
2022/12/03 00:52:50;;;;;;;25.00;11.13;;;4.00;99.90;;;;;;5048300;28;20052;-76
2022/12/03 00:55:16;;;;;;;31.27;11.77;;;2.80;99.90;;;;;;5049099;28;20025;-76
2022/12/03 00:57:41;;;;;;;31.60;10.57;;;2.60;99.90;;;;;;5066311;28;20512;-75
2022/12/03 01:00:08;;;;;;;30.60;12.77;;;2.60;99.90;;;;;;5052778;28;20531;-76
2022/12/03 01:02:34;;;;;;;28.45;14.73;;;2.60;99.90;;;;;;5052851;28;20075;-76
2022/12/03 01:05:00;;;;;;;24.38;11.90;;;3.00;99.90;;;;;;5053183;28;20556;-76
2022/12/03 01:07:25;;;;;;;41.08;13.60;;;2.70;99.90;;;;;;5070938;28;20051;-77
2022/12/03 01:09:51;;;;;;;34.60;11.90;;;2.70;99.90;;;;;;5052957;28;20473;-76
2022/12/03 01:12:17;;;;;;;20.85;10.02;;;2.70;99.90;;;;;;5070346;28;20031;-77
2022/12/03 01:14:42;;;;;;;22.55;13.05;;;3.00;99.90;;;;;;5071187;28;20548;-76
2022/12/03 01:17:08;;;;;;;23.67;10.55;;;2.60;99.90;;;;;;5070364;28;20035;-76
2022/12/03 01:19:34;;;;;;;20.45;9.85;;;2.80;99.90;;;;;;5070842;28;20043;-75
2022/12/03 01:22:00;;;;;;;26.63;13.00;;;2.60;99.90;;;;;;5069816;28;20429;-76
2022/12/03 01:24:26;;;;;;;23.90;11.02;;;2.70;99.90;;;;;;5052314;28;20066;-77
2022/12/03 01:26:52;;;;;;;24.42;10.13;;;2.70;99.90;;;;;;5052176;28;20128;-76
2022/12/03 01:29:17;;;;;;;23.55;9.20;;;4.30;99.90;;;;;;5052270;28;20040;-76
2022/12/03 01:34:27;;;;;;;30.13;10.77;;;2.70;99.90;;;;;;5070345;28;20819;-74
2022/12/03 01:36:52;;;;;;;20.35;9.93;;;2.70;99.90;;;;;;5051914;28;20028;-76
2022/12/03 01:39:19;;;;;;;22.33;10.98;;;2.60;99.90;;;;;;5071205;28;20041;-77
2022/12/03 01:41:46;;;;;;;22.92;9.88;;;2.70;99.90;;;;;;5069841;28;20039;-75
2022/12/03 01:44:33;;;;;;;22.25;10.23;;;4.80;99.90;;;;;;5070837;28;20084;-76
2022/12/03 01:47:03;;;;;;;22.65;11.18;;;2.60;99.90;;;;;;5051929;28;20029;-76
2022/12/03 01:49:53;;;;;;;17.65;8.50;;;2.60;99.90;;;;;;5053103;28;20131;-76
2022/12/03 01:52:25;;;;;;;18.42;9.80;;;3.40;99.90;;;;;;5061625;28;20086;-76
2022/12/03 01:54:54;;;;;;;23.05;8.38;;;2.60;99.90;;;;;;5070694;28;20093;-76
2022/12/03 01:57:21;;;;;;;20.53;8.53;;;2.50;99.90;;;;;;5072997;28;20052;-77
2022/12/03 01:59:47;;;;;;;23.50;10.02;;;2.60;99.90;;;;;;5072504;28;20486;-76
2022/12/03 02:02:25;;;;;;;28.77;12.68;;;2.50;99.90;;;;;;5072605;28;20024;-76
2022/12/03 02:04:52;;;;;;;24.33;10.45;;;2.50;99.90;;;;;;5072009;28;20040;-77
2022/12/03 02:07:19;;;;;;;21.30;9.82;;;3.80;99.90;;;;;;5072120;28;20051;-76
2022/12/03 02:09:45;;;;;;;24.65;11.10;;;3.00;99.90;;;;;;5090150;28;20162;-75
2022/12/03 02:12:11;;;;;;;21.58;9.57;;;3.90;99.90;;;;;;5071438;28;20182;-76
2022/12/03 02:14:37;;;;;;;24.13;8.65;;;2.60;99.90;;;;;;5070841;28;20028;-76
2022/12/03 02:17:03;;;;;;;21.63;7.68;;;2.50;99.90;;;;;;5070778;28;20031;-75
2022/12/03 02:19:29;;;;;;;18.63;7.45;;;2.90;99.90;;;;;;5088713;28;20499;-76
2022/12/03 02:22:21;;;;;;;13.85;7.35;;;2.50;99.90;;;;;;5070280;28;20510;-76
2022/12/03 02:24:54;;;;;;;17.38;8.77;;;2.50;99.90;;;;;;5070449;28;20024;-75
2022/12/03 02:27:20;;;;;;;30.10;10.35;;;2.60;99.90;;;;;;5089194;28;20028;-75
2022/12/03 02:29:46;;;;;;;19.13;8.23;;;2.40;99.90;;;;;;5072342;28;20031;-76
2022/12/03 02:32:12;;;;;;;15.82;7.65;;;3.20;99.90;;;;;;5090412;28;20028;-75
2022/12/03 02:34:43;;;;;;;22.73;10.52;;;2.40;99.90;;;;;;5071748;28;20070;-75
2022/12/03 02:37:14;;;;;;;22.48;9.52;;;2.70;99.90;;;;;;5088750;28;20039;-76
2022/12/03 02:39:44;;;;;;;23.90;11.77;;;2.30;99.90;;;;;;5070730;28;20024;-76
2022/12/03 02:44:56;;;;;;;21.02;10.00;;;2.40;99.90;;;;;;5087263;28;20122;-76
2022/12/03 02:47:22;;;;;;;25.70;9.93;;;2.40;99.90;;;;;;5088241;28;20028;-74
2022/12/03 02:49:48;;;;;;;16.60;8.38;;;2.40;99.90;;;;;;5088340;28;20416;-74
2022/12/03 02:52:14;;;;;;;22.80;10.13;;;3.10;99.90;;;;;;4529760;28;15079965;-75
2022/12/03 02:54:40;;;;;;;18.58;7.95;;;2.80;99.90;;;;;;5057258;28;20032;-76
2022/12/03 02:57:06;;;;;;;22.58;9.07;;;2.30;99.90;;;;;;5069889;28;20035;-77
2022/12/03 02:59:32;;;;;;;14.10;8.40;;;2.30;99.90;;;;;;5050895;28;20021;-77
2022/12/03 03:01:58;;;;;;;19.40;9.88;;;2.30;99.90;;;;;;5050844;28;20043;-75
2022/12/03 03:04:24;;;;;;;18.58;9.27;;;2.60;99.90;;;;;;5069569;28;20025;-75
2022/12/03 03:06:51;;;;;;;22.30;10.60;;;2.70;99.90;;;;;;5069245;28;20176;-75
2022/12/03 03:09:17;;;;;;;21.42;8.63;;;2.10;99.90;;;;;;5069090;28;20541;-75
2022/12/03 03:11:42;;;;;;;20.65;7.63;;;2.90;99.90;;;;;;5069400;28;20016;-76
2022/12/03 03:14:08;;;;;;;16.17;8.05;;;2.10;99.90;;;;;;5069728;28;20381;-75
2022/12/03 03:16:34;;;;;;;14.65;6.78;;;3.50;99.90;;;;;;5051454;28;20516;-75
2022/12/03 03:19:01;;;;;;;16.88;8.52;;;3.10;99.90;;;;;;5053113;28;20024;-75
2022/12/03 03:21:26;;;;;;;13.60;7.80;;;2.10;99.90;;;;;;5069756;28;20029;-75
2022/12/03 03:23:52;;;;;;;20.95;6.95;;;2.00;99.90;;;;;;5086900;28;20068;-75
2022/12/03 03:26:18;;;;;;;13.68;8.45;;;2.30;99.90;;;;;;5072923;28;20028;-75
2022/12/03 03:28:48;;;;;;;13.70;7.20;;;2.10;99.90;;;;;;5090905;28;20496;-75
2022/12/03 03:31:16;;;;;;;16.35;9.15;;;2.90;99.90;;;;;;5090809;28;20031;-75
2022/12/03 03:33:44;;;;;;;20.27;11.02;;;2.30;99.90;;;;;;5090793;28;20069;-75
2022/12/03 03:36:11;;;;;;;16.33;7.80;;;2.40;99.90;;;;;;5072317;28;20483;-76
2022/12/03 03:38:37;;;;;;;29.25;9.88;;;2.10;99.90;;;;;;5084771;28;20033;-76
2022/12/03 03:41:04;;;;;;;17.83;8.52;;;2.90;99.90;;;;;;5070515;28;20048;-75
2022/12/03 03:43:33;;;;;;;15.15;7.78;;;2.10;99.90;;;;;;5070436;28;20023;-76
2022/12/03 03:46:00;;;;;;;12.90;7.90;;;2.90;99.90;;;;;;5070739;28;20020;-76
2022/12/03 03:48:26;;;;;;;17.23;7.18;;;2.20;99.90;;;;;;5070308;28;20028;-75
2022/12/03 03:50:52;;;;;;;13.70;7.40;;;2.20;99.90;;;;;;5070568;28;20028;-75
2022/12/03 03:53:19;;;;;;;22.33;8.60;;;2.10;99.90;;;;;;5070141;28;20048;-76
2022/12/03 03:55:45;;;;;;;15.57;8.48;;;2.10;99.90;;;;;;5070219;28;20124;-75
2022/12/03 03:58:11;;;;;;;17.45;8.73;;;2.10;99.90;;;;;;5069919;28;20017;-76
2022/12/03 04:00:37;;;;;;;15.82;7.03;;;2.10;99.90;;;;;;5051988;28;20032;-75
2022/12/03 04:03:05;;;;;;;17.15;7.13;;;2.10;99.90;;;;;;5070438;28;20039;-75
2022/12/03 04:05:30;;;;;;;20.75;8.48;;;2.10;99.90;;;;;;5069869;28;20040;-75
2022/12/03 04:07:57;;;;;;;19.63;7.32;;;3.50;99.90;;;;;;5070313;28;20071;-75
2022/12/03 04:13:07;;;;;;;14.63;6.10;;;2.60;99.90;;;;;;5070494;28;20449;-75
2022/12/03 04:15:33;;;;;;;19.58;8.70;;;2.30;99.90;;;;;;5069883;28;20443;-75
2022/12/03 04:20:43;;;;;;;17.33;6.88;;;1.80;99.90;;;;;;5069900;28;20089;-75
2022/12/03 04:23:09;;;;;;;16.70;8.00;;;1.90;99.90;;;;;;5051739;28;20100;-75
2022/12/03 04:28:52;;;;;;;15.57;7.53;;;2.00;99.90;;;;;;5070055;28;20034;-75
2022/12/03 04:36:39;;;;;;;17.15;8.65;;;2.70;99.90;;;;;;5069327;28;20674;-75
2022/12/03 04:39:05;;;;;;;19.63;9.02;;;1.40;99.90;;;;;;5069421;28;20283;-76
2022/12/03 04:41:30;;;;;;;16.38;8.35;;;1.30;99.90;;;;;;5069798;28;20032;-75
2022/12/03 04:46:40;;;;;;;15.13;8.07;;;1.10;99.90;;;;;;5069918;28;20074;-75
2022/12/03 04:49:06;;;;;;;16.30;7.18;;;1.00;99.90;;;;;;5069558;28;20017;-75
2022/12/03 04:51:32;;;;;;;17.40;8.70;;;2.40;99.90;;;;;;5069326;28;20089;-75
2022/12/03 04:53:57;;;;;;;17.27;9.48;;;1.90;99.90;;;;;;5069298;28;20462;-75
2022/12/03 04:56:23;;;;;;;14.98;6.90;;;2.60;99.90;;;;;;5069361;28;20051;-76
2022/12/03 04:58:48;;;;;;;14.52;8.00;;;1.70;99.90;;;;;;5051404;28;20040;-75
2022/12/03 05:01:14;;;;;;;18.55;8.25;;;0.60;99.90;;;;;;5069844;28;20029;-76
2022/12/03 05:03:40;;;;;;;20.45;7.53;;;1.70;99.90;;;;;;5051353;28;20453;-76
2022/12/03 05:06:06;;;;;;;15.82;8.13;;;2.40;99.90;;;;;;5069243;28;20568;-76
2022/12/03 05:08:32;;;;;;;15.65;7.22;;;0.50;99.90;;;;;;5051146;28;20029;-75
2022/12/03 05:10:57;;;;;;;15.15;7.88;;;1.70;99.90;;;;;;5069239;28;20024;-75
2022/12/03 05:13:23;;;;;;;14.50;7.32;;;1.20;99.90;;;;;;5069128;28;20384;-75
2022/12/03 05:15:48;;;;;;;14.35;6.22;;;0.60;99.90;;;;;;5051251;28;20028;-76
2022/12/03 05:18:14;;;;;;;15.93;6.90;;;0.90;99.90;;;;;;5051375;28;20168;-75
2022/12/03 05:20:40;;;;;;;14.57;7.85;;;0.30;99.90;;;;;;5076691;28;20020;-76
2022/12/03 05:23:05;;;;;;;12.50;6.55;;;2.80;99.90;;;;;;5089546;28;20028;-74
2022/12/03 05:25:31;;;;;;;17.33;7.38;;;2.40;99.90;;;;;;5089378;28;20019;-76
2022/12/03 05:27:57;;;;;;;16.58;8.02;;;0.50;99.90;;;;;;5071076;28;20206;-75
2022/12/03 05:30:22;;;;;;;13.30;8.85;;;0.00;99.90;;;;;;5089090;28;20028;-75
2022/12/03 05:32:48;;;;;;;17.88;6.88;;;0.60;99.90;;;;;;5089266;28;20350;-75
2022/12/03 05:35:14;;;;;;;11.93;5.75;;;1.30;99.90;;;;;;5089019;28;20021;-76
2022/12/03 05:37:40;;;;;;;15.98;7.38;;;1.20;99.90;;;;;;5089126;28;20035;-75
2022/12/03 05:40:06;;;;;;;10.75;6.68;;;1.60;99.90;;;;;;5089307;28;20043;-76
2022/12/03 05:45:17;;;;;;;17.13;7.70;;;0.40;99.90;;;;;;5092208;28;20039;-76
2022/12/03 05:47:43;;;;;;;11.00;7.65;;;0.90;99.90;;;;;;5074654;28;20028;-75
2022/12/03 05:50:09;;;;;;;13.88;6.35;;;2.20;99.90;;;;;;5092753;28;20035;-75
2022/12/03 05:52:34;;;;;;;15.27;7.20;;;0.40;99.90;;;;;;5092732;28;20173;-75
2022/12/03 05:55:00;;;;;;;10.68;7.28;;;0.80;99.90;;;;;;5092885;28;20032;-75
2022/12/03 05:57:26;;;;;;;13.05;7.07;;;0.60;99.90;;;;;;5092771;28;20499;-75
2022/12/03 05:59:51;;;;;;;17.65;7.50;;;0.60;99.90;;;;;;5092731;28;20028;-75
2022/12/03 06:02:17;;;;;;;18.63;9.57;;;0.60;99.90;;;;;;5092762;28;20036;-75
2022/12/03 06:04:42;;;;;;;22.10;8.80;;;2.10;99.90;;;;;;5092526;28;20043;-75
2022/12/03 06:07:08;;;;;;;15.60;8.50;;;2.60;99.90;;;;;;5092332;28;20388;-75
2022/12/03 06:09:34;;;;;;;16.20;8.15;;;0.50;99.90;;;;;;5092442;28;20031;-75
2022/12/03 06:11:59;;;;;;;18.50;8.13;;;1.70;99.90;;;;;;5092575;28;20035;-75
2022/12/03 06:14:25;;;;;;;15.32;7.68;;;0.90;99.90;;;;;;5092426;28;20034;-76
2022/12/03 06:16:51;;;;;;;13.95;7.65;;;1.80;99.90;;;;;;5074044;28;20036;-75
2022/12/03 06:19:16;;;;;;;19.75;8.80;;;0.50;99.90;;;;;;5092140;28;20435;-76
2022/12/03 06:21:42;;;;;;;21.40;9.85;;;0.50;99.90;;;;;;5092039;28;20040;-76
2022/12/03 06:24:08;;;;;;;18.35;8.75;;;2.10;99.90;;;;;;5074004;28;20537;-76
2022/12/03 06:26:33;;;;;;;18.20;8.48;;;1.90;99.90;;;;;;5074172;28;20569;-75
2022/12/03 06:28:59;;;;;;;16.08;7.97;;;2.30;99.90;;;;;;5092144;28;20425;-76
2022/12/03 06:31:25;;;;;;;22.05;9.30;;;1.90;99.90;;;;;;5092134;28;20031;-76
2022/12/03 06:33:50;;;;;;;12.65;8.30;;;0.90;99.90;;;;;;5074018;28;20449;-75
2022/12/03 06:36:16;;;;;;;22.25;9.10;;;0.70;99.90;;;;;;5092069;28;20028;-75
2022/12/03 06:38:41;;;;;;;17.27;10.15;;;0.60;99.90;;;;;;5092074;28;20028;-76
2022/12/03 06:41:07;;;;;;;16.90;9.82;;;2.40;99.90;;;;;;5091935;28;20032;-76
2022/12/03 06:43:32;;;;;;;17.48;8.13;;;1.60;99.90;;;;;;5092691;28;20052;-75
2022/12/03 06:45:58;;;;;;;20.90;11.60;;;2.40;99.90;;;;;;5092070;28;20024;-75
2022/12/03 06:48:24;;;;;;;22.25;8.25;;;2.20;99.90;;;;;;5091613;28;20377;-75
2022/12/03 06:50:49;;;;;;;16.90;9.25;;;1.90;99.90;;;;;;5091692;28;20040;-76
2022/12/03 06:53:15;;;;;;;18.48;8.40;;;0.60;99.90;;;;;;5073639;28;20048;-75
2022/12/03 06:55:40;;;;;;;28.38;10.10;;;0.70;99.90;;;;;;5090646;28;20473;-75
2022/12/03 06:58:06;;;;;;;28.48;12.45;;;0.70;99.90;;;;;;5091684;28;20020;-76
2022/12/03 07:00:32;;;;;;;23.92;10.15;;;3.40;99.90;;;;;;5073165;28;20408;-76
2022/12/03 07:03:00;;;;;;;24.98;10.98;;;2.20;99.90;;;;;;5073322;28;20497;-76
2022/12/03 07:05:26;;;;;;;15.75;8.07;;;2.20;99.90;;;;;;5091462;28;20024;-75
2022/12/03 07:07:54;;;;;;;18.55;8.73;;;1.90;99.90;;;;;;5091272;28;20518;-76
2022/12/03 07:10:20;;;;;;;16.90;6.97;;;1.60;99.90;;;;;;5073071;28;20085;-76
2022/12/03 07:12:46;;;;;;;16.35;9.20;;;1.70;99.90;;;;;;5091223;28;20048;-75
2022/12/03 07:15:12;;;;;;;18.15;6.95;;;0.70;99.90;;;;;;5073145;28;20629;-75
2022/12/03 07:17:37;;;;;;;17.98;10.23;;;1.90;99.90;;;;;;5090717;28;20545;-75
2022/12/03 07:20:04;;;;;;;16.38;8.07;;;2.60;99.90;;;;;;5081932;28;20023;-76
2022/12/03 07:22:29;;;;;;;22.50;11.05;;;0.90;99.90;;;;;;5078417;28;20081;-76
2022/12/03 07:24:55;;;;;;;16.02;8.13;;;1.90;99.90;;;;;;5073329;28;20024;-75
2022/12/03 07:27:21;;;;;;;16.55;7.28;;;1.00;99.90;;;;;;5086455;28;20028;-76
2022/12/03 07:29:46;;;;;;;18.45;8.45;;;1.00;99.90;;;;;;5075430;28;20020;-76
2022/12/03 07:32:12;;;;;;;14.15;7.63;;;1.60;99.90;;;;;;5057009;28;20024;-75
2022/12/03 07:34:38;;;;;;;22.15;10.85;;;2.20;99.90;;;;;;5060637;28;20019;-76
2022/12/03 07:37:04;;;;;;;14.23;8.18;;;;;;;;;;5080135;28;20536;-76
2022/12/03 07:39:29;;;;;;;17.50;7.65;;;1.30;99.90;;;;;;5059519;28;20024;-75
2022/12/03 07:41:55;;;;;;;16.50;8.95;;;2.10;99.90;;;;;;5060929;28;20038;-76
2022/12/03 07:44:20;;;;;;;16.50;7.03;;;2.60;99.90;;;;;;5078645;28;20050;-75
2022/12/03 07:46:46;;;;;;;17.35;8.40;;;1.40;99.90;;;;;;5079292;28;20032;-76
2022/12/03 07:49:12;;;;;;;20.35;9.07;;;1.90;99.90;;;;;;5088292;28;20066;-75
2022/12/03 07:51:37;;;;;;;20.85;9.77;;;1.40;99.90;;;;;;5090808;28;20032;-75
2022/12/03 07:54:03;;;;;;;18.98;8.60;;;3.00;99.90;;;;;;5072375;28;20466;-75
2022/12/03 07:56:29;;;;;;;16.85;8.38;;;1.40;99.90;;;;;;5055839;28;20036;-74
2022/12/03 07:58:55;;;;;;;17.45;9.25;;;1.40;99.90;;;;;;5069902;28;20466;-75
2022/12/03 08:01:20;;;;;;;19.25;9.32;;;2.70;99.90;;;;;;5070002;28;20040;-75
2022/12/03 08:03:46;;;;;;;12.18;6.93;;;2.80;99.90;;;;;;5070083;28;20039;-75
2022/12/03 08:06:12;;;;;;;18.05;9.95;;;1.80;99.90;;;;;;5073539;28;20025;-75
2022/12/03 08:08:37;;;;;;;14.38;8.98;;;2.80;99.90;;;;;;5089260;28;20016;-75
2022/12/03 08:11:03;;;;;;;22.20;10.55;;;2.30;99.90;;;;;;5094892;28;20024;-76
2022/12/03 08:13:29;;;;;;;20.33;8.98;;;1.60;99.90;;;;;;5079956;28;20526;-76
2022/12/03 08:15:58;;;;;;;19.42;7.97;;;1.70;99.90;;;;;;5079489;28;20077;-76
2022/12/03 08:18:24;;;;;;;17.23;8.45;;;2.30;99.90;;;;;;5060294;28;20027;-77
2022/12/03 08:20:50;;;;;;;18.50;9.32;;;2.90;99.90;;;;;;5077578;28;20396;-75
2022/12/03 08:23:21;;;;;;;16.90;8.18;;;2.80;99.90;;;;;;5075451;28;20397;-75
2022/12/03 08:25:48;;;;;;;16.83;9.90;;;1.70;99.90;;;;;;5077506;28;20366;-76
2022/12/03 08:28:24;;;;;;;24.90;10.30;;;1.90;99.90;;;;;;5068254;28;20236;-75
2022/12/03 08:31:06;;;;;;;17.65;8.30;;;1.70;99.90;;;;;;5066643;28;20036;-76
2022/12/03 08:33:34;;;;;;;23.35;8.45;;;1.70;99.90;;;;;;5064359;28;20132;-76
2022/12/03 08:36:19;;;;;;;19.70;9.43;;;2.40;99.90;;;;;;5074942;28;20032;-76
2022/12/03 08:38:50;;;;;;;19.33;9.02;;;1.80;99.90;;;;;;5083565;28;20024;-76
2022/12/03 08:42:40;;;;;;;13.85;8.25;;;1.70;99.90;;;;;;5088610;28;20032;-75
2022/12/03 08:44:31;;;;;;;19.77;8.15;;;2.50;99.90;;;;;;5087619;28;20396;-76
2022/12/03 08:47:15;;;;;;;23.02;11.82;;;1.70;99.90;;;;;;5069360;28;20496;-76
2022/12/03 08:49:44;;;;;;;28.98;12.95;;;1.70;99.90;;;;;;5069716;28;20024;-76
2022/12/03 08:52:15;;;;;;;17.85;10.23;;;1.80;99.90;;;;;;5069393;28;20059;-76
2022/12/03 08:54:42;;;;;;;16.33;9.88;;;2.00;99.90;;;;;;5061916;28;20430;-76
2022/12/03 08:57:32;;;;;;;19.98;8.13;;;2.20;99.90;;;;;;5069357;28;20020;-76
2022/12/03 09:00:21;;;;;;;18.58;7.80;;;1.90;99.90;;;;;;5054901;28;20031;-77
2022/12/03 09:02:52;;;;;;;14.57;7.53;;;1.90;99.90;;;;;;5059796;28;20325;-75
2022/12/03 09:05:21;;;;;;;14.98;7.43;;;2.10;99.90;;;;;;5074713;28;20062;-76
2022/12/03 09:07:47;;;;;;;11.98;6.30;;;2.10;99.90;;;;;;5086977;28;20317;-76
2022/12/03 09:10:13;;;;;;;16.75;8.07;;;2.80;99.90;;;;;;5071075;28;20024;-76
2022/12/03 09:12:39;;;;;;;17.02;7.10;;;2.10;99.90;;;;;;5087659;28;20036;-76
2022/12/03 09:15:05;;;;;;;13.27;8.18;;;3.80;99.90;;;;;;5087549;28;20266;-76
2022/12/03 09:17:31;;;;;;;14.13;8.07;;;2.10;99.90;;;;;;5070860;28;20055;-76
2022/12/03 09:19:57;;;;;;;18.50;8.82;;;3.50;99.90;;;;;;5069455;28;20027;-77
2022/12/03 09:22:23;;;;;;;18.77;7.85;;;4.00;99.90;;;;;;5092336;28;20020;-76
2022/12/03 09:24:48;;;;;;;13.90;7.50;;;2.70;99.90;;;;;;5071629;28;20039;-75
2022/12/03 09:27:14;;;;;;;16.85;7.57;;;2.30;99.90;;;;;;5090246;28;20031;-76
2022/12/03 09:29:40;;;;;;;18.88;7.97;;;2.30;99.90;;;;;;5073739;28;20605;-75
2022/12/03 09:32:05;;;;;;;19.13;7.63;;;2.10;99.90;;;;;;5083204;28;20095;-75
2022/12/03 09:34:31;;;;;;;18.55;8.88;;;2.30;99.90;;;;;;5082634;28;20023;-75
2022/12/03 09:36:56;;;;;;;18.77;7.72;;;2.30;99.90;;;;;;5065593;28;20028;-76
2022/12/03 09:39:22;;;;;;;14.10;7.60;;;3.40;99.90;;;;;;5083713;28;20216;-75
2022/12/03 09:41:48;;;;;;;12.20;5.93;;;4.00;99.90;;;;;;5087110;28;20098;-75
2022/12/03 09:44:14;;;;;;;21.17;8.50;;;3.80;99.90;;;;;;5070802;28;20021;-76
2022/12/03 09:46:40;;;;;;;14.95;7.65;;;3.30;99.90;;;;;;5086908;28;20040;-75
2022/12/03 09:49:09;;;;;;;15.40;7.20;;;2.90;99.90;;;;;;5068414;28;20036;-76
2022/12/03 09:51:35;;;;;;;19.85;7.88;;;3.00;99.90;;;;;;5084289;28;20108;-75
2022/12/03 09:54:04;;;;;;;17.33;8.65;;;3.80;99.90;;;;;;5086962;28;20091;-75
2022/12/03 09:56:30;;;;;;;17.42;7.72;;;2.20;99.90;;;;;;5082193;28;20016;-76
2022/12/03 09:58:56;;;;;;;20.42;10.50;;;3.80;99.90;;;;;;5077273;28;20108;-75
2022/12/03 10:01:22;;;;;;;21.52;8.77;;;2.40;99.90;;;;;;5065656;28;20328;-75
2022/12/03 10:03:52;;;;;;;20.80;9.98;;;2.40;99.90;;;;;;5082952;28;20020;-75
2022/12/03 10:06:20;;;;;;;17.83;8.50;;;2.60;99.90;;;;;;5065793;28;20250;-76
2022/12/03 10:08:52;;;;;;;13.52;6.82;;;3.20;99.90;;;;;;5065487;28;20095;-75
2022/12/03 10:11:20;;;;;;;25.23;8.70;;;2.80;99.90;;;;;;5065024;28;20363;-76
2022/12/03 10:13:46;;;;;;;18.90;6.82;;;2.40;99.90;;;;;;5070404;28;20047;-77
2022/12/03 10:16:15;;;;;;;20.08;8.07;;;2.50;99.90;;;;;;5078144;28;20020;-76
2022/12/03 10:18:46;;;;;;;18.25;9.00;;;3.30;99.90;;;;;;5089039;28;20020;-75
2022/12/03 10:21:24;;;;;;;14.32;6.53;;;3.70;99.90;;;;;;5068573;28;20385;-75
2022/12/03 10:24:15;;;;;;;15.75;7.45;;;3.30;99.90;;;;;;5080649;28;20021;-77
2022/12/03 10:26:41;;;;;;;15.63;6.28;;;2.30;99.90;;;;;;5060662;28;20024;-75
2022/12/03 10:29:28;;;;;;;14.95;6.63;;;3.50;99.90;;;;;;5080402;28;20020;-77
2022/12/03 10:31:58;;;;;;;15.55;6.55;;;2.40;99.90;;;;;;5078268;28;20213;-76
2022/12/03 10:34:44;;;;;;;11.70;6.45;;;2.60;99.90;;;;;;5062141;28;20340;-76
2022/12/03 10:37:19;;;;;;;17.67;8.20;;;2.60;99.90;;;;;;5078483;28;20020;-76
2022/12/03 10:39:55;;;;;;;21.35;7.93;;;2.90;99.90;;;;;;5067045;28;20088;-76
2022/12/03 10:42:21;;;;;;;22.20;8.35;;;;;;;;;;5087377;28;20036;-76
2022/12/03 10:44:52;;;;;;;22.05;7.82;;;;;;;;;;5069665;28;20031;-76
2022/12/03 10:47:19;;;;;;;16.40;5.60;;;2.70;99.90;;;;;;5070679;28;20060;-75
2022/12/03 10:49:59;;;;;;;17.15;8.10;;;2.80;99.90;;;;;;5061758;28;20221;-77
2022/12/03 10:52:25;;;;;;;16.95;8.45;;;2.90;99.90;;;;;;5079452;28;20520;-75
2022/12/03 10:54:51;;;;;;;19.48;10.20;;;;;;;;;;5080146;28;20016;-75
2022/12/03 10:57:16;;;;;;;16.65;7.65;;;2.90;99.90;;;;;;5078363;28;20741;-76
2022/12/03 10:59:43;;;;;;;12.60;7.13;;;;;;;;;;5078747;28;20046;-77
2022/12/03 11:02:19;;;;;;;13.52;6.30;;;2.90;99.90;;;;;;5080694;28;20032;-75
2022/12/03 11:04:46;;;;;;;12.43;7.13;;;;;;;;;;5080647;28;20037;-75
2022/12/03 11:07:16;;;;;;;9.20;5.22;;;3.10;99.90;;;;;;5081652;28;20476;-75
2022/12/03 11:09:48;;;;;;;19.63;8.20;;;3.80;99.90;;;;;;5067372;28;20019;-75
2022/12/03 11:12:24;;;;;;;17.52;8.05;;;3.00;99.90;;;;;;5082919;28;20028;-75
2022/12/03 11:14:50;;;;;;;16.40;8.35;;;4.60;99.90;;;;;;5078947;28;20020;-75
2022/12/03 11:17:39;;;;;;;14.60;7.40;;;3.20;99.90;;;;;;5060470;28;20032;-76
2022/12/03 11:20:23;;;;;;;19.80;8.15;;;2.90;99.90;;;;;;5062276;28;20024;-75
2022/12/03 11:22:49;;;;;;;25.10;10.40;;;3.00;99.90;;;;;;5063183;28;20377;-75
2022/12/03 11:25:24;;;;;;;16.83;8.50;;;3.10;99.90;;;;;;5061875;28;20020;-75
2022/12/03 11:28:10;;;;;;;15.82;6.47;;;3.00;99.90;;;;;;5062707;28;20024;-75
2022/12/03 11:30:48;;;;;;;17.48;7.30;;;3.00;99.90;;;;;;5062853;28;20020;-75
2022/12/03 11:33:22;;;;;;;10.73;6.35;;;;;;;;;;5077962;28;20028;-76
2022/12/03 11:36:18;;;;;;;16.23;7.47;;;3.10;99.90;;;;;;5077284;28;20016;-76
2022/12/03 11:38:49;;;;;;;13.50;6.03;;;3.00;99.90;;;;;;5050102;28;20174;-75
2022/12/03 11:41:17;;;;;;;14.73;7.85;;;3.20;99.90;;;;;;5069689;28;20036;-76
2022/12/03 11:43:51;;;;;;;13.70;6.97;;;3.30;99.90;;;;;;5099691;28;20026;-75
2022/12/03 11:46:23;;;;;;;13.13;6.32;;;3.30;99.90;;;;;;5092174;28;20023;-76
2022/12/03 11:48:51;;;;;;;22.55;9.38;;;2.90;99.90;;;;;;5089304;28;20024;-76
2022/12/03 11:51:20;;;;;;;14.35;8.70;;;3.50;99.90;;;;;;5088096;28;20149;-76
2022/12/03 11:53:46;;;;;;;16.38;7.93;;;3.00;99.90;;;;;;5108309;28;20492;-76
2022/12/03 11:56:18;;;;;;;17.23;8.10;;;3.00;99.90;;;;;;5089431;28;20050;-76
2022/12/03 11:58:45;;;;;;;10.70;6.10;;;2.60;99.90;;;;;;5091013;28;20015;-76
2022/12/03 12:01:12;;;;;;;9.85;5.65;;;3.00;99.90;;;;;;5110297;28;20039;-76
2022/12/03 12:03:43;;;;;;;10.55;5.03;;;2.60;99.90;;;;;;5111350;28;20520;-77
2022/12/03 12:06:11;;;;;;;13.63;7.93;;;2.80;99.90;;;;;;5087669;28;20182;-75
2022/12/03 12:08:58;;;;;;;14.10;6.90;;;3.10;99.90;;;;;;5063599;28;20023;-75
2022/12/03 12:11:28;;;;;;;14.02;6.25;;;3.00;99.90;;;;;;5051218;28;20524;-75
2022/12/03 12:13:57;;;;;;;12.13;7.03;;;2.70;99.90;;;;;;5089705;28;20024;-76
2022/12/03 12:16:53;;;;;;;16.33;5.43;;;2.30;99.90;;;;;;5088948;28;20488;-75
2022/12/03 12:19:49;;;;;;;12.27;5.53;;;2.30;99.90;;;;;;5056968;28;20680;-76
2022/12/03 12:22:17;;;;;;;15.25;5.97;;;2.30;99.90;;;;;;5066977;28;20059;-76
2022/12/03 12:24:50;;;;;;;11.98;6.25;;;2.20;99.90;;;;;;5070611;28;20020;-75
2022/12/03 12:27:17;;;;;;;16.55;7.80;;;2.20;99.90;;;;;;5050385;28;20047;-75
2022/12/03 12:29:46;;;;;;;16.88;7.82;;;2.30;99.90;;;;;;5075990;28;20225;-75
2022/12/03 12:32:16;;;;;;;16.52;7.95;;;2.20;99.90;;;;;;5058904;28;20025;-75
2022/12/03 12:34:48;;;;;;;10.18;5.13;;;2.20;99.90;;;;;;5076382;28;20480;-75
2022/12/03 12:37:35;;;;;;;14.65;7.55;;;2.00;99.90;;;;;;5076695;28;20457;-75
2022/12/03 12:40:09;;;;;;;16.10;6.28;;;1.90;99.90;;;;;;5073391;28;20124;-75
2022/12/03 12:42:37;;;;;;;18.27;6.75;;;1.90;99.90;;;;;;5075174;28;20039;-75
2022/12/03 12:45:12;;;;;;;14.75;6.30;;;2.00;99.90;;;;;;5069676;28;20062;-75
2022/12/03 12:47:43;;;;;;;14.98;7.40;;;2.00;99.90;;;;;;5087178;28;20343;-75
2022/12/03 12:50:10;;;;;;;12.70;6.55;;;2.30;99.90;;;;;;5069791;28;20358;-75
2022/12/03 12:52:47;;;;;;;10.25;6.00;;;2.00;99.90;;;;;;5069249;28;20363;-75
2022/12/03 12:55:15;;;;;;;14.50;5.75;;;2.30;99.90;;;;;;5068791;28;20039;-75
2022/12/03 12:57:41;;;;;;;16.77;7.13;;;2.10;99.90;;;;;;5080998;28;20035;-75
2022/12/03 13:00:13;;;;;;;13.48;6.35;;;3.10;99.90;;;;;;5086328;28;20106;-75
2022/12/03 13:02:44;;;;;;;15.07;5.70;;;1.80;99.90;;;;;;5083108;28;20542;-75
2022/12/03 13:05:11;;;;;;;13.57;5.07;;;2.10;99.90;;;;;;5080652;28;20028;-75
2022/12/03 13:07:38;;;;;;;14.65;7.00;;;1.80;99.90;;;;;;5061981;28;20251;-75
2022/12/03 13:10:37;;;;;;;12.00;6.97;;;2.90;99.90;;;;;;5062012;28;20410;-75
2022/12/03 13:13:21;;;;;;;12.20;6.20;;;1.90;99.90;;;;;;5016030;28;20036;-75
2022/12/03 13:15:58;;;;;;;13.40;5.97;;;1.80;99.90;;;;;;5081479;28;20044;-76
2022/12/03 13:18:56;;;;;;;10.82;6.88;;;1.80;99.90;;;;;;5058607;28;20031;-75